Airfield :
LOGIN :

Register | Disclaimer

   EN    FR    IT 

 










Legend :    VFR   Marginal VFR   IFR   Intensive IFR   Very Intensive IFR
Visi :
Ceiling :
>= 8 km
>= 3000ft
5 to 8 km
1000 to 3000 ft
1500m to 5 km
500 to 1000 ft
800 to 1500m
200 to 500 ft
< 800m
< 200 ft
Symbols :   Thunderstorms  Fog  Heavy snow  Heavy precipitations  Wind > 20 kt
SIGMETs :     Misc.  Thunderstorms  Icing  Turbulence  Mountain Waves  Volcanic Ashes






- Airport Elevation : 598 ft
- IATA code : BQH


EGKB - Biggin Hill

CURRENT METAR :
  • 151320Z VRB03KT 1200 R21/P0750 -RADZ BR OVC002 19/19 Q1015

EXPIRED METARs :
  • 151250Z 34004KT 0900 R21/P0750 -RADZ FG OVC002 18/18 Q1015
  • 151220Z 34004KT 0700 R21/P0750 -RADZ FG OVC002 18/18 Q1015
  • 151150Z 34004KT 2000 -RADZ BR OVC002 20/19 Q1015
  • 151120Z 36004KT 330V030 1000 R21/P0750 BR OVC002 18/18 Q1015
  • 151050Z 34004KT 320V030 0450 R21/P0750 FG OVC002 18/18 Q1015

TAF AMD TAF EGKB
Valid from the 15 at 13:00 until the 15 at 21:00 UTC


151332Z 1513/1521 02004KT 1200 BR BKN002
BECMG 1513/1516 8000 BKN007
PROB30
TEMPO 1513/1521 3000 +SHRA
PROB30
TEMPO 1516/1519 SCT007 BKN015



MET'MAP, your aeronautical weather chart ! - Copyright ORBIFLY December 2007 - Disclaimer

ORBIFLY MET'MAP TEAM :

Programming & Development : Alexandra Zaïnal
Concept & original design : Baudouin d'Aumeries
Assistance for programming : Marc-Olivier Méhu
Technical & hardware support : Manuel Goepfert

Contact : metmap@orbifly.com




SOURCES & CREDITS :

   NOAA